createdAt,value
2019-05-21T00:00:20.607Z,98561.00
2019-05-21T00:02:25.975Z,98570.00
2019-05-21T00:04:31.500Z,98568.00
2019-05-21T00:06:36.900Z,98568.00
2019-05-21T00:08:41.914Z,98567.00
2019-05-21T00:10:46.996Z,98576.00
2019-05-21T00:12:52.600Z,98568.00
2019-05-21T00:14:57.763Z,98574.00
2019-05-21T00:17:03.193Z,98569.00
2019-05-21T00:19:08.277Z,98569.00
2019-05-21T00:21:13.562Z,98571.00
2019-05-21T00:23:19.148Z,98562.00
2019-05-21T00:25:24.791Z,98560.00
2019-05-21T00:27:29.937Z,98568.00
2019-05-21T00:30:29.966Z,98567.00
2019-05-21T00:33:29.486Z,98569.00
2019-05-21T00:36:30.490Z,98575.00
2019-05-21T00:39:30.143Z,98573.00
2019-05-21T00:42:04.126Z,98567.00
2019-05-21T00:44:09.383Z,98570.00
2019-05-21T00:46:14.550Z,98559.00
2019-05-21T00:48:19.776Z,98548.00
2019-05-21T00:50:24.961Z,98548.00
2019-05-21T00:52:30.043Z,98547.00
2019-05-21T00:54:35.618Z,98536.00
2019-05-21T00:56:41.060Z,98531.00
2019-05-21T00:58:46.326Z,98535.00
2019-05-21T01:00:52.904Z,98531.00
2019-05-21T01:02:58.404Z,98519.00
2019-05-21T01:05:04.554Z,98526.00
2019-05-21T01:07:10.221Z,98516.00
2019-05-21T01:09:16.041Z,98525.00
2019-05-21T01:11:21.134Z,98528.00
2019-05-21T01:13:26.637Z,98529.00
2019-05-21T01:15:31.645Z,98528.00
2019-05-21T01:17:36.782Z,98535.00
2019-05-21T01:19:42.190Z,98522.00
2019-05-21T01:21:47.269Z,98522.00
2019-05-21T01:23:52.362Z,98528.00
2019-05-21T01:25:57.842Z,98534.00
2019-05-21T01:28:03.834Z,98535.00
2019-05-21T01:30:09.442Z,98534.00
2019-05-21T01:32:14.502Z,98526.00
2019-05-21T01:34:19.996Z,98535.00
2019-05-21T01:36:25.460Z,98537.00
2019-05-21T01:38:31.108Z,98534.00
2019-05-21T01:40:36.978Z,98527.00
2019-05-21T01:42:42.747Z,98534.00
2019-05-21T01:44:47.830Z,98523.00
2019-05-21T01:46:53.365Z,98534.00
2019-05-21T01:48:58.784Z,98529.00
2019-05-21T01:51:04.602Z,98529.00
2019-05-21T01:53:09.974Z,98517.00
2019-05-21T01:55:15.409Z,98529.00
2019-05-21T01:57:20.664Z,98528.00
2019-05-21T01:59:25.822Z,98528.00
2019-05-21T02:01:32.867Z,98530.00
2019-05-21T02:03:38.201Z,98541.00
2019-05-21T02:05:43.642Z,98531.00
2019-05-21T02:07:48.928Z,98541.00
2019-05-21T02:10:00.258Z,98544.00
2019-05-21T02:12:06.052Z,98543.00
2019-05-21T02:14:11.460Z,98545.00
2019-05-21T02:16:16.587Z,98552.00
2019-05-21T02:18:21.749Z,98539.00
2019-05-21T02:20:27.195Z,98543.00
2019-05-21T02:22:32.535Z,98553.00
2019-05-21T02:24:37.549Z,98543.00
2019-05-21T02:26:43.162Z,98561.00
2019-05-21T02:28:48.717Z,98553.00
2019-05-21T02:30:56.626Z,98568.00
2019-05-21T02:33:01.281Z,98564.00
2019-05-21T02:35:06.917Z,98556.00
2019-05-21T02:37:12.242Z,98562.00
2019-05-21T02:39:17.438Z,98559.00
2019-05-21T02:41:22.488Z,98571.00
2019-05-21T02:43:27.820Z,98567.00
2019-05-21T02:45:33.661Z,98567.00
2019-05-21T02:47:39.310Z,98569.00
2019-05-21T02:49:44.765Z,98571.00
2019-05-21T02:51:49.795Z,98567.00
2019-05-21T02:53:55.259Z,98583.00
2019-05-21T02:56:00.490Z,98571.00
2019-05-21T02:58:05.585Z,98570.00
2019-05-21T03:00:29.691Z,98578.00
2019-05-21T03:02:38.995Z,98583.00
2019-05-21T03:04:44.377Z,98574.00
2019-05-21T03:06:49.939Z,98583.00
2019-05-21T03:08:55.417Z,98572.00
2019-05-21T03:11:01.159Z,98573.00
2019-05-21T03:13:06.370Z,98564.00
2019-05-21T03:15:11.854Z,98564.00
2019-05-21T03:17:17.456Z,98562.00
2019-05-21T03:19:22.551Z,98565.00
2019-05-21T03:21:28.012Z,98575.00
2019-05-21T03:23:33.366Z,98567.00
2019-05-21T03:25:38.795Z,98574.00
2019-05-21T03:27:44.742Z,98574.00
2019-05-21T03:29:49.908Z,98574.00
2019-05-21T03:31:55.097Z,98572.00
2019-05-21T03:34:00.205Z,98585.00
2019-05-21T03:36:05.618Z,98569.00
2019-05-21T03:38:10.797Z,98578.00
2019-05-21T03:40:16.183Z,98574.00
2019-05-21T03:42:21.378Z,98587.00
2019-05-21T03:44:26.796Z,98583.00
2019-05-21T03:46:33.147Z,98576.00
2019-05-21T03:48:38.319Z,98581.00
2019-05-21T03:50:44.109Z,98588.00
2019-05-21T03:52:49.732Z,98587.00
2019-05-21T03:54:55.072Z,98592.00
2019-05-21T03:57:00.090Z,98595.00
2019-05-21T03:59:05.517Z,98593.00
2019-05-21T04:01:11.300Z,98602.00
2019-05-21T04:03:16.396Z,98592.00
2019-05-21T04:05:26.458Z,98594.00
2019-05-21T04:07:31.492Z,98597.00
2019-05-21T04:09:37.086Z,98593.00
2019-05-21T04:11:42.492Z,98597.00
2019-05-21T04:13:48.164Z,98597.00
2019-05-21T04:15:59.945Z,98606.00
2019-05-21T04:18:10.357Z,98596.00
2019-05-21T04:20:15.607Z,98601.00
2019-05-21T04:22:21.030Z,98601.00
2019-05-21T04:24:26.812Z,98597.00
2019-05-21T04:26:32.164Z,98601.00
2019-05-21T04:28:37.344Z,98610.00
2019-05-21T04:30:42.350Z,98609.00
2019-05-21T04:32:47.619Z,98609.00
2019-05-21T04:34:53.098Z,98604.00
2019-05-21T04:37:09.847Z,98602.00
2019-05-21T04:39:06.647Z,98602.00
2019-05-21T04:41:11.730Z,98605.00
2019-05-21T04:43:17.200Z,98608.00
2019-05-21T04:45:22.643Z,98606.00
2019-05-21T04:47:27.830Z,98611.00
2019-05-21T04:49:33.351Z,98615.00
2019-05-21T04:51:39.123Z,98611.00
2019-05-21T04:53:44.148Z,98608.00
2019-05-21T04:55:49.541Z,98609.00
2019-05-21T04:57:54.584Z,98616.00
2019-05-21T04:59:59.912Z,98618.00
2019-05-21T05:02:05.296Z,98616.00
2019-05-21T05:04:10.715Z,98609.00
2019-05-21T05:06:15.729Z,98616.00
2019-05-21T05:08:20.773Z,98627.00
2019-05-21T05:10:26.531Z,98620.00
2019-05-21T05:12:31.534Z,98613.00
2019-05-21T05:14:37.341Z,98624.00
2019-05-21T05:16:42.429Z,98616.00
2019-05-21T05:18:47.507Z,98617.00
2019-05-21T05:20:52.938Z,98611.00
2019-05-21T05:22:58.411Z,98608.00
2019-05-21T05:25:03.612Z,98630.00
2019-05-21T05:27:08.774Z,98638.00
2019-05-21T05:29:14.320Z,98646.00
2019-05-21T05:31:20.113Z,98649.00
2019-05-21T05:33:26.272Z,98641.00
2019-05-21T05:35:31.627Z,98639.00
2019-05-21T05:37:44.074Z,98639.00
2019-05-21T05:39:44.505Z,98654.00
2019-05-21T05:41:50.080Z,98652.00
2019-05-21T05:43:55.094Z,98654.00
2019-05-21T05:46:00.532Z,98656.00
2019-05-21T05:48:06.094Z,98669.00
2019-05-21T05:50:13.710Z,98675.00
2019-05-21T05:52:18.775Z,98673.00
2019-05-21T05:54:24.263Z,98665.00
2019-05-21T05:56:30.187Z,98671.00
2019-05-21T05:58:35.626Z,98684.00
2019-05-21T06:00:41.045Z,98665.00
2019-05-21T06:02:46.228Z,98675.00
2019-05-21T06:04:51.324Z,98667.00
2019-05-21T06:06:56.739Z,98663.00
2019-05-21T06:09:02.134Z,98654.00
2019-05-21T06:11:07.535Z,98667.00
2019-05-21T06:13:13.011Z,98647.00
2019-05-21T06:15:19.106Z,98643.00
2019-05-21T06:17:24.369Z,98648.00
2019-05-21T06:19:29.424Z,98646.00
2019-05-21T06:21:34.383Z,98651.00
2019-05-21T06:23:39.470Z,98663.00
2019-05-21T06:25:44.773Z,98661.00
2019-05-21T06:27:49.890Z,98669.00
2019-05-21T06:29:55.070Z,98660.00
2019-05-21T06:32:00.853Z,98658.00
2019-05-21T06:34:07.374Z,98657.00
2019-05-21T06:36:12.561Z,98673.00
2019-05-21T06:38:18.518Z,98670.00
2019-05-21T06:40:24.202Z,98674.00
2019-05-21T06:42:29.224Z,98684.00
2019-05-21T06:44:34.250Z,98698.00
2019-05-21T06:46:39.410Z,98698.00
2019-05-21T06:48:45.187Z,98699.00
2019-05-21T06:50:50.583Z,98706.00
2019-05-21T06:52:56.032Z,98723.00
2019-05-21T06:55:01.854Z,98719.00
2019-05-21T06:57:07.279Z,98728.00
2019-05-21T06:59:12.454Z,98732.00
2019-05-21T07:01:17.808Z,98743.00
2019-05-21T07:03:23.130Z,98751.00
2019-05-21T07:05:28.696Z,98744.00
2019-05-21T07:07:33.969Z,98744.00
2019-05-21T07:09:39.542Z,98749.00
2019-05-21T07:11:45.064Z,98746.00
2019-05-21T07:13:50.206Z,98753.00
2019-05-21T07:15:55.688Z,98755.00
2019-05-21T07:18:01.164Z,98752.00
2019-05-21T07:20:08.737Z,98762.00
2019-05-21T07:22:13.974Z,98757.00
2019-05-21T07:24:19.090Z,98761.00
2019-05-21T07:26:24.437Z,98757.00
2019-05-21T07:28:29.484Z,98754.00
2019-05-21T07:30:34.665Z,98765.00
2019-05-21T07:32:40.035Z,98757.00
2019-05-21T07:34:45.332Z,98760.00
2019-05-21T07:36:50.458Z,98764.00
2019-05-21T07:38:55.481Z,98764.00
2019-05-21T07:41:00.683Z,98768.00
2019-05-21T07:43:06.073Z,98771.00
2019-05-21T07:45:11.394Z,98779.00
2019-05-21T07:47:16.799Z,98781.00
2019-05-21T07:49:21.823Z,98787.00
2019-05-21T07:51:27.204Z,98793.00
2019-05-21T07:53:32.646Z,98792.00
2019-05-21T07:55:37.850Z,98806.00
2019-05-21T07:57:42.927Z,98801.00
2019-05-21T07:59:48.040Z,98801.00
2019-05-21T08:01:53.481Z,98809.00
2019-05-21T08:03:58.941Z,98814.00
2019-05-21T08:06:04.253Z,98809.00
2019-05-21T08:08:09.434Z,98819.00
2019-05-21T08:10:14.557Z,98823.00
2019-05-21T08:12:37.160Z,98816.00
2019-05-21T08:14:26.790Z,98816.00
2019-05-21T08:16:31.904Z,98814.00
2019-05-21T08:18:36.972Z,98818.00
2019-05-21T08:20:42.149Z,98818.00
2019-05-21T08:22:47.497Z,98830.00
2019-05-21T08:24:52.564Z,98826.00
2019-05-21T08:26:57.686Z,98826.00
2019-05-21T08:29:02.717Z,98822.00
2019-05-21T08:31:08.173Z,98830.00
2019-05-21T08:33:13.639Z,98822.00
2019-05-21T08:35:18.853Z,98826.00
2019-05-21T08:37:24.285Z,98836.00
2019-05-21T08:39:29.571Z,98833.00
2019-05-21T08:41:34.712Z,98835.00
2019-05-21T08:43:39.928Z,98831.00
2019-05-21T08:45:45.332Z,98842.00
2019-05-21T08:47:50.746Z,98843.00
2019-05-21T08:49:55.966Z,98843.00
2019-05-21T08:52:01.462Z,98853.00
2019-05-21T08:54:06.923Z,98861.00
2019-05-21T08:56:12.087Z,98853.00
2019-05-21T08:58:17.367Z,98860.00
2019-05-21T09:00:24.115Z,98860.00
2019-05-21T09:02:29.598Z,98870.00
2019-05-21T09:04:45.837Z,98874.00
2019-05-21T09:06:41.671Z,98869.00
2019-05-21T09:08:46.868Z,98871.00
2019-05-21T09:10:52.065Z,98875.00
2019-05-21T09:12:57.473Z,98860.00
2019-05-21T09:15:02.717Z,98876.00
2019-05-21T09:17:07.965Z,98870.00
2019-05-21T09:19:13.061Z,98870.00
2019-05-21T09:21:18.336Z,98865.00
2019-05-21T09:23:23.765Z,98870.00
2019-05-21T09:25:28.923Z,98867.00
2019-05-21T09:27:34.139Z,98863.00
2019-05-21T09:29:39.245Z,98861.00
2019-05-21T09:31:44.419Z,98868.00
2019-05-21T09:33:49.854Z,98862.00
2019-05-21T09:35:55.419Z,98865.00
2019-05-21T09:38:00.676Z,98861.00
2019-05-21T09:40:07.247Z,98863.00
2019-05-21T09:42:12.711Z,98860.00
2019-05-21T09:44:17.889Z,98867.00
2019-05-21T09:46:22.998Z,98865.00
2019-05-21T09:48:28.729Z,98868.00
2019-05-21T09:50:33.852Z,98870.00
2019-05-21T09:52:39.502Z,98870.00
2019-05-21T09:54:44.752Z,98883.00
2019-05-21T09:56:49.762Z,98875.00
2019-05-21T09:58:56.796Z,98888.00
2019-05-21T10:01:17.670Z,98887.00
2019-05-21T10:03:23.672Z,98883.00
2019-05-21T10:05:28.844Z,98878.00
2019-05-21T10:07:39.565Z,98884.00
2019-05-21T10:09:40.988Z,98895.00
2019-05-21T10:11:46.195Z,98902.00
2019-05-21T10:13:51.356Z,98901.00
2019-05-21T10:16:01.005Z,98897.00
2019-05-21T10:18:03.267Z,98890.00
2019-05-21T10:20:08.920Z,98898.00
2019-05-21T10:22:14.120Z,98911.00
2019-05-21T10:24:19.332Z,98914.00
2019-05-21T10:26:24.777Z,98915.00
2019-05-21T10:28:30.013Z,98924.00
2019-05-21T10:30:35.254Z,98912.00
2019-05-21T10:32:40.425Z,98919.00
2019-05-21T10:34:45.897Z,98928.00
2019-05-21T10:36:51.271Z,98919.00
2019-05-21T10:38:56.733Z,98929.00
2019-05-21T10:41:02.172Z,98922.00
2019-05-21T10:43:07.552Z,98921.00
2019-05-21T10:45:12.972Z,98931.00
2019-05-21T10:47:18.133Z,98923.00
2019-05-21T10:49:23.518Z,98922.00
2019-05-21T10:51:28.981Z,98931.00
2019-05-21T10:53:34.091Z,98923.00
2019-05-21T10:55:39.314Z,98931.00
2019-05-21T10:57:44.966Z,98930.00
2019-05-21T10:59:50.714Z,98945.00
2019-05-21T11:02:21.550Z,98945.00
2019-05-21T11:04:37.451Z,98947.00
2019-05-21T11:06:43.531Z,98963.00
2019-05-21T11:08:49.155Z,98967.00
2019-05-21T11:10:54.630Z,98967.00
2019-05-21T11:13:00.277Z,98965.00
2019-05-21T11:15:06.338Z,98967.00
2019-05-21T11:17:12.835Z,98964.00
2019-05-21T11:19:18.563Z,98962.00
2019-05-21T11:21:23.600Z,98967.00
2019-05-21T11:23:28.802Z,98976.00
2019-05-21T11:25:34.174Z,98973.00
2019-05-21T11:27:39.279Z,98972.00
2019-05-21T11:29:44.639Z,98975.00
2019-05-21T11:31:56.940Z,98985.00
2019-05-21T11:33:57.105Z,98982.00
2019-05-21T11:36:02.837Z,98982.00
2019-05-21T11:38:08.296Z,98988.00
2019-05-21T11:40:14.446Z,98991.00
2019-05-21T11:42:19.842Z,98993.00
2019-05-21T11:44:25.262Z,98990.00
2019-05-21T11:46:30.430Z,98988.00
2019-05-21T11:48:35.609Z,98999.00
2019-05-21T11:50:40.784Z,99007.00
2019-05-21T11:52:45.897Z,98994.00
2019-05-21T11:54:51.419Z,99005.00
2019-05-21T11:56:57.006Z,99011.00
2019-05-21T11:59:02.497Z,99018.00
2019-05-21T12:01:08.186Z,99011.00
2019-05-21T12:03:13.282Z,99019.00
2019-05-21T12:05:18.769Z,99015.00
2019-05-21T12:07:23.951Z,99021.00
2019-05-21T12:09:29.467Z,99031.00
2019-05-21T12:11:34.598Z,99022.00
2019-05-21T12:13:39.725Z,99028.00
2019-05-21T12:15:45.430Z,99029.00
2019-05-21T12:17:50.648Z,99026.00
2019-05-21T12:19:56.070Z,99032.00
2019-05-21T12:22:01.105Z,99032.00
2019-05-21T12:24:06.316Z,99033.00
2019-05-21T12:26:11.750Z,99028.00
2019-05-21T12:28:17.490Z,99038.00
2019-05-21T12:30:22.683Z,99042.00
2019-05-21T12:32:28.131Z,99050.00
2019-05-21T12:34:33.887Z,99050.00
2019-05-21T12:36:39.079Z,99051.00
2019-05-21T12:38:44.603Z,99054.00
2019-05-21T12:40:49.769Z,99047.00
2019-05-21T12:42:55.628Z,99051.00
2019-05-21T12:45:02.741Z,99058.00
2019-05-21T12:47:09.881Z,99050.00
2019-05-21T12:49:15.894Z,99067.00
2019-05-21T12:51:21.053Z,99068.00
2019-05-21T12:53:26.035Z,99075.00
2019-05-21T12:55:31.216Z,99081.00
2019-05-21T12:57:06.995Z,99073.00
2019-05-21T12:58:12.644Z,99074.00
2019-05-21T12:59:18.844Z,99066.00
2019-05-21T13:00:30.309Z,99068.00
2019-05-21T13:01:36.491Z,99077.00
2019-05-21T13:02:45.376Z,99068.00
2019-05-21T13:03:55.695Z,99072.00
2019-05-21T13:05:01.034Z,99082.00
2019-05-21T13:06:06.977Z,99084.00
2019-05-21T13:07:12.153Z,99088.00
2019-05-21T13:08:17.981Z,99087.00
2019-05-21T13:09:32.268Z,99083.00
2019-05-21T13:10:31.021Z,99089.00
2019-05-21T13:11:36.472Z,99088.00
2019-05-21T13:12:42.681Z,99085.00
2019-05-21T13:13:47.923Z,99088.00
2019-05-21T13:14:54.089Z,99082.00
2019-05-21T13:15:59.352Z,99090.00
2019-05-21T13:17:05.259Z,99087.00
2019-05-21T13:18:10.347Z,99093.00
2019-05-21T13:19:16.457Z,99096.00
2019-05-21T13:20:22.207Z,99096.00
2019-05-21T13:21:28.089Z,99101.00
2019-05-21T13:22:33.600Z,99096.00
2019-05-21T13:23:39.654Z,99094.00
2019-05-21T13:24:45.456Z,99094.00
2019-05-21T13:25:51.876Z,99096.00
2019-05-21T13:26:57.057Z,99102.00
2019-05-21T13:28:02.968Z,99101.00
2019-05-21T13:29:08.174Z,99102.00
2019-05-21T13:30:14.543Z,99102.00
2019-05-21T13:31:20.133Z,99107.00
2019-05-21T13:32:25.964Z,99107.00
2019-05-21T13:33:31.248Z,99112.00
2019-05-21T13:34:37.707Z,99108.00
2019-05-21T13:35:42.967Z,99112.00
2019-05-21T13:36:49.167Z,99111.00
2019-05-21T13:37:54.820Z,99120.00
2019-05-21T13:39:00.713Z,99116.00
2019-05-21T13:40:07.626Z,99108.00
2019-05-21T13:41:13.544Z,99125.00
2019-05-21T13:42:18.987Z,99120.00
2019-05-21T13:43:25.037Z,99125.00
2019-05-21T13:44:30.379Z,99132.00
2019-05-21T13:45:36.647Z,99122.00
2019-05-21T13:46:41.823Z,99129.00
2019-05-21T13:47:47.746Z,99121.00
2019-05-21T13:48:52.970Z,99125.00
2019-05-21T13:49:59.011Z,99119.00
2019-05-21T13:51:04.349Z,99119.00
2019-05-21T13:52:10.318Z,99120.00
2019-05-21T13:53:15.773Z,99129.00
2019-05-21T13:54:21.768Z,99126.00
2019-05-21T13:55:27.276Z,99129.00
2019-05-21T13:56:33.266Z,99122.00
2019-05-21T13:57:38.465Z,99127.00
2019-05-21T13:58:44.980Z,99132.00
2019-05-21T13:59:50.394Z,99129.00
2019-05-21T14:00:56.309Z,99135.00
2019-05-21T14:02:01.546Z,99134.00
2019-05-21T14:03:07.898Z,99136.00
2019-05-21T14:04:13.556Z,99143.00
2019-05-21T14:05:19.799Z,99144.00
2019-05-21T14:06:25.258Z,99146.00
2019-05-21T14:07:31.175Z,99150.00
2019-05-21T14:08:36.321Z,99144.00
2019-05-21T14:09:42.217Z,99144.00
2019-05-21T14:10:47.411Z,99146.00
2019-05-21T14:11:53.483Z,99153.00
2019-05-21T14:12:59.122Z,99145.00
2019-05-21T14:14:05.033Z,99148.00
2019-05-21T14:15:10.315Z,99147.00
2019-05-21T14:16:16.784Z,99142.00
2019-05-21T14:17:21.901Z,99148.00
2019-05-21T14:18:27.786Z,99149.00
2019-05-21T14:19:33.504Z,99148.00
2019-05-21T14:20:39.492Z,99151.00
2019-05-21T14:21:44.677Z,99147.00
2019-05-21T14:22:50.925Z,99154.00
2019-05-21T14:23:56.183Z,99155.00
2019-05-21T14:25:02.335Z,99163.00
2019-05-21T14:26:07.623Z,99162.00
2019-05-21T14:27:13.947Z,99158.00
2019-05-21T14:28:19.544Z,99168.00
2019-05-21T14:29:25.469Z,99156.00
2019-05-21T14:30:30.735Z,99153.00
2019-05-21T14:31:36.500Z,99162.00
2019-05-21T14:32:42.110Z,99155.00
2019-05-21T14:33:48.350Z,99155.00
2019-05-21T14:35:01.317Z,99159.00
2019-05-21T14:36:01.218Z,99157.00
2019-05-21T14:37:06.385Z,99151.00
2019-05-21T14:38:12.233Z,99150.00
2019-05-21T14:39:18.332Z,99159.00
2019-05-21T14:40:32.244Z,99163.00
2019-05-21T14:41:34.547Z,99159.00
2019-05-21T14:42:40.469Z,99150.00
2019-05-21T14:43:46.264Z,99160.00
2019-05-21T14:44:52.113Z,99157.00
2019-05-21T14:45:57.845Z,99164.00
2019-05-21T14:47:03.681Z,99165.00
2019-05-21T14:48:09.151Z,99160.00
2019-05-21T14:49:15.063Z,99165.00
2019-05-21T14:50:20.587Z,99164.00
2019-05-21T14:51:26.695Z,99163.00
2019-05-21T14:52:31.895Z,99172.00
2019-05-21T14:53:38.094Z,99160.00
2019-05-21T14:54:43.546Z,99162.00
2019-05-21T14:55:49.512Z,99159.00
2019-05-21T14:56:54.923Z,99162.00
2019-05-21T14:58:00.775Z,99166.00
2019-05-21T14:59:06.084Z,99167.00
2019-05-21T15:00:23.276Z,99170.00
2019-05-21T15:01:28.366Z,99164.00
2019-05-21T15:02:37.023Z,99166.00
2019-05-21T15:03:41.912Z,99169.00
2019-05-21T15:04:48.036Z,99170.00
2019-05-21T15:05:53.632Z,99173.00
2019-05-21T15:06:59.518Z,99178.00
2019-05-21T15:08:06.138Z,99176.00
2019-05-21T15:09:12.343Z,99178.00
2019-05-21T15:10:17.514Z,99175.00
2019-05-21T15:11:23.646Z,99178.00
2019-05-21T15:12:28.997Z,99178.00
2019-05-21T15:13:34.979Z,99177.00
2019-05-21T15:14:40.069Z,99169.00
2019-05-21T15:15:46.094Z,99176.00
2019-05-21T15:16:51.558Z,99182.00
2019-05-21T15:17:57.776Z,99180.00
2019-05-21T15:19:02.978Z,99180.00
2019-05-21T15:20:14.155Z,99184.00
2019-05-21T15:21:26.459Z,99178.00
2019-05-21T15:22:32.399Z,99187.00
2019-05-21T15:23:38.033Z,99190.00
2019-05-21T15:24:44.005Z,99177.00
2019-05-21T15:25:49.477Z,99180.00
2019-05-21T15:26:55.582Z,99185.00
2019-05-21T15:28:00.927Z,99185.00
2019-05-21T15:29:06.851Z,99182.00
2019-05-21T15:30:12.676Z,99182.00
2019-05-21T15:31:18.500Z,99181.00
2019-05-21T15:32:24.785Z,99179.00
2019-05-21T15:33:32.678Z,99187.00
2019-05-21T15:34:37.976Z,99185.00
2019-05-21T15:35:43.900Z,99192.00
2019-05-21T15:36:48.998Z,99196.00
2019-05-21T15:37:55.242Z,99194.00
2019-05-21T15:39:00.340Z,99191.00
2019-05-21T15:40:07.967Z,99186.00
2019-05-21T15:41:13.174Z,99178.00
2019-05-21T15:42:19.312Z,99186.00
2019-05-21T15:43:25.045Z,99188.00
2019-05-21T15:44:31.176Z,99180.00
2019-05-21T15:45:36.571Z,99187.00
2019-05-21T15:46:49.446Z,99183.00
2019-05-21T15:47:49.524Z,99190.00
2019-05-21T15:48:55.768Z,99188.00
2019-05-21T15:50:00.893Z,99186.00
2019-05-21T15:51:06.930Z,99185.00
2019-05-21T15:52:12.786Z,99187.00
2019-05-21T15:53:19.287Z,99185.00
2019-05-21T15:54:24.797Z,99187.00
2019-05-21T15:55:30.993Z,99186.00
2019-05-21T15:56:36.690Z,99190.00
2019-05-21T15:57:42.622Z,99194.00
2019-05-21T15:58:47.745Z,99197.00
2019-05-21T15:59:53.577Z,99193.00
2019-05-21T16:00:59.029Z,99203.00
2019-05-21T16:02:05.249Z,99191.00
2019-05-21T16:03:10.786Z,99202.00
2019-05-21T16:04:17.178Z,99203.00
2019-05-21T16:05:22.810Z,99194.00
2019-05-21T16:06:29.130Z,99202.00
2019-05-21T16:07:34.211Z,99205.00
2019-05-21T16:08:40.895Z,99199.00
2019-05-21T16:09:46.297Z,99196.00
2019-05-21T16:10:52.573Z,99202.00
2019-05-21T16:11:57.909Z,99206.00
2019-05-21T16:13:03.773Z,99197.00
2019-05-21T16:14:09.100Z,99203.00
2019-05-21T16:15:15.213Z,99204.00
2019-05-21T16:16:20.683Z,99199.00
2019-05-21T16:17:26.360Z,99204.00
2019-05-21T16:18:31.783Z,99208.00
2019-05-21T16:19:38.227Z,99209.00
2019-05-21T16:20:43.443Z,99203.00
2019-05-21T16:21:49.633Z,99207.00
2019-05-21T16:22:54.838Z,99207.00
2019-05-21T16:24:00.788Z,99208.00
2019-05-21T16:25:07.276Z,99212.00
2019-05-21T16:26:13.702Z,99211.00
2019-05-21T16:27:19.033Z,99210.00
2019-05-21T16:28:25.228Z,99208.00
2019-05-21T16:29:30.717Z,99208.00
2019-05-21T16:30:37.055Z,99219.00
2019-05-21T16:31:42.954Z,99209.00
2019-05-21T16:32:49.960Z,99215.00
2019-05-21T16:33:55.187Z,99218.00
2019-05-21T16:35:01.174Z,99213.00
2019-05-21T16:36:06.710Z,99209.00
2019-05-21T16:37:12.962Z,99214.00
2019-05-21T16:38:18.356Z,99212.00
2019-05-21T16:39:26.234Z,99215.00
2019-05-21T16:40:31.518Z,99213.00
2019-05-21T16:41:44.650Z,99217.00
2019-05-21T16:42:44.903Z,99212.00
2019-05-21T16:43:51.316Z,99220.00
2019-05-21T16:44:56.614Z,99210.00
2019-05-21T16:46:02.680Z,99215.00
2019-05-21T16:47:08.335Z,99220.00
2019-05-21T16:48:14.269Z,99218.00
2019-05-21T16:49:19.729Z,99218.00
2019-05-21T16:50:25.602Z,99218.00
2019-05-21T16:51:31.224Z,99214.00
2019-05-21T16:52:37.605Z,99218.00
2019-05-21T16:53:42.707Z,99219.00
2019-05-21T16:54:49.231Z,99219.00
2019-05-21T16:55:54.307Z,99213.00
2019-05-21T16:57:00.235Z,99215.00
2019-05-21T16:58:05.802Z,99221.00
2019-05-21T16:59:11.721Z,99212.00
2019-05-21T17:00:18.758Z,99212.00
2019-05-21T17:01:25.055Z,99217.00
2019-05-21T17:02:30.535Z,99225.00
2019-05-21T17:03:36.706Z,99218.00
2019-05-21T17:04:42.235Z,99221.00
2019-05-21T17:05:48.645Z,99220.00
2019-05-21T17:06:54.248Z,99222.00
2019-05-21T17:08:00.685Z,99217.00
2019-05-21T17:09:08.332Z,99218.00
2019-05-21T17:10:15.661Z,99231.00
2019-05-21T17:11:21.237Z,99223.00
2019-05-21T17:12:27.442Z,99219.00
2019-05-21T17:13:32.498Z,99229.00
2019-05-21T17:14:38.753Z,99223.00
2019-05-21T17:15:44.027Z,99222.00
2019-05-21T17:16:50.562Z,99226.00
2019-05-21T17:17:55.662Z,99232.00
2019-05-21T17:19:01.497Z,99222.00
2019-05-21T17:20:08.460Z,99227.00
2019-05-21T17:21:14.477Z,99235.00
2019-05-21T17:22:19.496Z,99228.00
2019-05-21T17:23:25.551Z,99227.00
2019-05-21T17:24:31.255Z,99228.00
2019-05-21T17:25:37.525Z,99236.00
2019-05-21T17:26:44.721Z,99231.00
2019-05-21T17:27:50.915Z,99236.00
2019-05-21T17:28:56.118Z,99226.00
2019-05-21T17:30:02.321Z,99231.00
2019-05-21T17:31:07.673Z,99235.00
2019-05-21T17:32:13.830Z,99229.00
2019-05-21T17:33:19.576Z,99240.00
2019-05-21T17:34:25.407Z,99237.00
2019-05-21T17:35:30.714Z,99245.00
2019-05-21T17:36:36.601Z,99242.00
2019-05-21T17:37:42.105Z,99236.00
2019-05-21T17:38:48.136Z,99237.00
2019-05-21T17:39:53.543Z,99244.00
2019-05-21T17:40:59.705Z,99245.00
2019-05-21T17:42:15.043Z,99236.00
2019-05-21T17:43:14.888Z,99237.00
2019-05-21T17:44:20.260Z,99242.00
2019-05-21T17:45:26.063Z,99245.00
2019-05-21T17:46:31.512Z,99237.00
2019-05-21T17:47:37.654Z,99241.00
2019-05-21T17:48:43.361Z,99247.00
2019-05-21T17:49:49.319Z,99239.00
2019-05-21T17:50:54.314Z,99245.00
2019-05-21T17:52:01.075Z,99251.00
2019-05-21T17:53:06.442Z,99254.00
2019-05-21T17:54:12.909Z,99245.00
2019-05-21T17:55:18.167Z,99254.00
2019-05-21T17:56:24.125Z,99246.00
2019-05-21T17:57:31.083Z,99242.00
2019-05-21T17:58:37.369Z,99251.00
2019-05-21T17:59:42.816Z,99245.00
2019-05-21T18:00:52.251Z,99254.00
2019-05-21T18:01:57.669Z,99247.00
2019-05-21T18:03:03.797Z,99241.00
2019-05-21T18:04:09.313Z,99257.00
2019-05-21T18:05:16.260Z,99256.00
2019-05-21T18:06:21.773Z,99245.00
2019-05-21T18:07:28.815Z,99261.00
2019-05-21T18:08:34.714Z,99259.00
2019-05-21T18:09:40.708Z,99253.00
2019-05-21T18:10:45.844Z,99259.00
2019-05-21T18:11:51.814Z,99251.00
2019-05-21T18:12:57.595Z,99262.00
2019-05-21T18:14:03.870Z,99253.00
2019-05-21T18:15:12.047Z,99260.00
2019-05-21T18:16:18.377Z,99265.00
2019-05-21T18:17:25.324Z,99269.00
2019-05-21T18:18:32.093Z,99262.00
2019-05-21T18:19:38.142Z,99262.00
2019-05-21T18:20:44.680Z,99267.00
2019-05-21T18:21:50.534Z,99269.00
2019-05-21T18:22:57.241Z,99269.00
2019-05-21T18:24:03.695Z,99272.00
2019-05-21T18:25:12.100Z,99271.00
2019-05-21T18:26:17.394Z,99269.00
2019-05-21T18:27:25.000Z,99277.00
2019-05-21T18:28:30.488Z,99271.00
2019-05-21T18:29:36.315Z,99273.00
2019-05-21T18:30:41.937Z,99274.00
2019-05-21T18:31:48.169Z,99280.00
2019-05-21T18:32:53.532Z,99279.00
2019-05-21T18:33:59.372Z,99285.00
2019-05-21T18:35:05.195Z,99286.00
2019-05-21T18:36:11.096Z,99289.00
2019-05-21T18:37:16.184Z,99291.00
2019-05-21T18:38:22.025Z,99289.00
2019-05-21T18:39:28.706Z,99285.00
2019-05-21T18:40:35.047Z,99282.00
2019-05-21T18:41:40.175Z,99285.00
2019-05-21T18:42:46.402Z,99289.00
2019-05-21T18:43:51.931Z,99293.00
2019-05-21T18:44:57.773Z,99284.00
2019-05-21T18:46:03.287Z,99289.00
2019-05-21T18:47:09.378Z,99289.00
2019-05-21T18:48:14.542Z,99284.00
2019-05-21T18:49:20.419Z,99286.00
2019-05-21T18:50:35.499Z,99289.00
2019-05-21T18:51:33.265Z,99295.00
2019-05-21T18:52:38.832Z,99288.00
2019-05-21T18:53:44.651Z,99293.00
2019-05-21T18:54:49.875Z,99292.00
2019-05-21T18:55:56.147Z,99294.00
2019-05-21T18:57:02.222Z,99287.00
2019-05-21T18:58:08.140Z,99304.00
2019-05-21T18:59:13.493Z,99294.00
2019-05-21T19:00:20.330Z,99305.00
2019-05-21T19:01:25.850Z,99299.00
2019-05-21T19:02:31.991Z,99308.00
2019-05-21T19:03:37.175Z,99308.00
2019-05-21T19:04:43.070Z,99298.00
2019-05-21T19:05:49.037Z,99311.00